sensor_id;sensor_type;location;lat;lon;timestamp;P1;durP1;ratioP1;P2;durP2;ratioP2
29238;SDS011;16267;48.194;11.546;2022-12-07T00:01:11;17.58;;;11.20;;
29238;SDS011;16267;48.194;11.546;2022-12-07T00:03:40;15.95;;;11.18;;
29238;SDS011;16267;48.194;11.546;2022-12-07T00:06:09;15.50;;;10.98;;
29238;SDS011;16267;48.194;11.546;2022-12-07T00:08:37;16.23;;;10.85;;
29238;SDS011;16267;48.194;11.546;2022-12-07T00:11:04;19.15;;;12.07;;
29238;SDS011;16267;48.194;11.546;2022-12-07T00:13:36;15.75;;;11.20;;
29238;SDS011;16267;48.194;11.546;2022-12-07T00:16:05;18.75;;;11.73;;
29238;SDS011;16267;48.194;11.546;2022-12-07T00:18:43;19.05;;;11.30;;
29238;SDS011;16267;48.194;11.546;2022-12-07T00:21:11;17.48;;;11.35;;
29238;SDS011;16267;48.194;11.546;2022-12-07T00:23:40;16.05;;;11.10;;
29238;SDS011;16267;48.194;11.546;2022-12-07T00:26:11;17.45;;;11.75;;
29238;SDS011;16267;48.194;11.546;2022-12-07T00:28:41;20.92;;;12.32;;
29238;SDS011;16267;48.194;11.546;2022-12-07T00:33:41;18.67;;;10.88;;
29238;SDS011;16267;48.194;11.546;2022-12-07T00:36:09;18.42;;;11.57;;
29238;SDS011;16267;48.194;11.546;2022-12-07T00:38:38;15.38;;;10.35;;
29238;SDS011;16267;48.194;11.546;2022-12-07T00:41:06;16.00;;;10.98;;
29238;SDS011;16267;48.194;11.546;2022-12-07T00:43:49;15.73;;;10.38;;
29238;SDS011;16267;48.194;11.546;2022-12-07T00:46:16;16.58;;;10.27;;
29238;SDS011;16267;48.194;11.546;2022-12-07T00:48:43;16.90;;;10.23;;
29238;SDS011;16267;48.194;11.546;2022-12-07T00:51:10;16.27;;;10.43;;
29238;SDS011;16267;48.194;11.546;2022-12-07T00:53:37;16.30;;;10.70;;
29238;SDS011;16267;48.194;11.546;2022-12-07T00:56:04;15.90;;;10.35;;
29238;SDS011;16267;48.194;11.546;2022-12-07T00:58:36;15.48;;;10.80;;
29238;SDS011;16267;48.194;11.546;2022-12-07T01:01:02;15.32;;;10.38;;
29238;SDS011;16267;48.194;11.546;2022-12-07T01:03:30;14.95;;;9.80;;
29238;SDS011;16267;48.194;11.546;2022-12-07T01:05:56;15.70;;;10.70;;
29238;SDS011;16267;48.194;11.546;2022-12-07T01:08:23;13.68;;;10.13;;
29238;SDS011;16267;48.194;11.546;2022-12-07T01:10:57;15.88;;;10.70;;
29238;SDS011;16267;48.194;11.546;2022-12-07T01:13:26;16.02;;;10.43;;
29238;SDS011;16267;48.194;11.546;2022-12-07T01:15:55;15.75;;;10.70;;
29238;SDS011;16267;48.194;11.546;2022-12-07T01:21:06;13.73;;;9.30;;
29238;SDS011;16267;48.194;11.546;2022-12-07T01:23:50;14.73;;;9.70;;
29238;SDS011;16267;48.194;11.546;2022-12-07T01:26:17;16.10;;;10.45;;
29238;SDS011;16267;48.194;11.546;2022-12-07T01:28:46;16.75;;;10.88;;
29238;SDS011;16267;48.194;11.546;2022-12-07T01:31:13;13.93;;;10.10;;
29238;SDS011;16267;48.194;11.546;2022-12-07T01:33:41;14.65;;;10.43;;
29238;SDS011;16267;48.194;11.546;2022-12-07T01:36:16;17.45;;;10.68;;
29238;SDS011;16267;48.194;11.546;2022-12-07T01:38:47;16.17;;;10.55;;
29238;SDS011;16267;48.194;11.546;2022-12-07T01:41:18;15.55;;;10.75;;
29238;SDS011;16267;48.194;11.546;2022-12-07T01:44:31;16.00;;;10.73;;
29238;SDS011;16267;48.194;11.546;2022-12-07T01:46:42;15.63;;;11.20;;
29238;SDS011;16267;48.194;11.546;2022-12-07T01:55:06;15.07;;;10.07;;
29238;SDS011;16267;48.194;11.546;2022-12-07T01:57:37;13.15;;;9.38;;
29238;SDS011;16267;48.194;11.546;2022-12-07T02:00:09;15.55;;;10.00;;
29238;SDS011;16267;48.194;11.546;2022-12-07T05:03:43;18.08;;;11.52;;
29238;SDS011;16267;48.194;11.546;2022-12-07T05:06:10;18.45;;;11.20;;
29238;SDS011;16267;48.194;11.546;2022-12-07T05:08:37;16.67;;;11.60;;
29238;SDS011;16267;48.194;11.546;2022-12-07T05:11:03;17.17;;;11.65;;
29238;SDS011;16267;48.194;11.546;2022-12-07T05:13:31;16.92;;;11.05;;
29238;SDS011;16267;48.194;11.546;2022-12-07T05:15:57;15.95;;;11.63;;
29238;SDS011;16267;48.194;11.546;2022-12-07T05:18:23;15.52;;;11.05;;
29238;SDS011;16267;48.194;11.546;2022-12-07T05:20:50;16.80;;;11.68;;
29238;SDS011;16267;48.194;11.546;2022-12-07T05:23:16;18.13;;;11.40;;
29238;SDS011;16267;48.194;11.546;2022-12-07T05:25:46;17.52;;;12.32;;
29238;SDS011;16267;48.194;11.546;2022-12-07T05:28:12;16.55;;;11.38;;
29238;SDS011;16267;48.194;11.546;2022-12-07T05:30:38;17.85;;;12.30;;
29238;SDS011;16267;48.194;11.546;2022-12-07T05:33:07;19.35;;;12.13;;
29238;SDS011;16267;48.194;11.546;2022-12-07T05:35:33;17.83;;;12.20;;
29238;SDS011;16267;48.194;11.546;2022-12-07T05:37:58;18.55;;;12.13;;
29238;SDS011;16267;48.194;11.546;2022-12-07T05:40:24;19.05;;;12.43;;
29238;SDS011;16267;48.194;11.546;2022-12-07T05:42:50;18.75;;;12.68;;
29238;SDS011;16267;48.194;11.546;2022-12-07T05:45:15;20.88;;;13.25;;
29238;SDS011;16267;48.194;11.546;2022-12-07T05:47:41;17.67;;;11.85;;
29238;SDS011;16267;48.194;11.546;2022-12-07T05:50:07;17.67;;;12.27;;
29238;SDS011;16267;48.194;11.546;2022-12-07T05:52:33;20.52;;;13.23;;
29238;SDS011;16267;48.194;11.546;2022-12-07T05:54:59;19.30;;;13.20;;
29238;SDS011;16267;48.194;11.546;2022-12-07T05:57:25;20.40;;;13.55;;
29238;SDS011;16267;48.194;11.546;2022-12-07T05:59:50;19.38;;;13.00;;
29238;SDS011;16267;48.194;11.546;2022-12-07T06:02:16;20.85;;;13.38;;
29238;SDS011;16267;48.194;11.546;2022-12-07T06:04:43;17.65;;;12.93;;
29238;SDS011;16267;48.194;11.546;2022-12-07T06:07:12;20.83;;;13.80;;
29238;SDS011;16267;48.194;11.546;2022-12-07T06:09:40;19.42;;;12.82;;
29238;SDS011;16267;48.194;11.546;2022-12-07T06:12:09;20.23;;;12.95;;
29238;SDS011;16267;48.194;11.546;2022-12-07T06:14:55;24.55;;;13.98;;
29238;SDS011;16267;48.194;11.546;2022-12-07T06:17:22;19.23;;;12.98;;
29238;SDS011;16267;48.194;11.546;2022-12-07T06:19:48;19.15;;;12.93;;
29238;SDS011;16267;48.194;11.546;2022-12-07T06:22:14;19.05;;;12.68;;
29238;SDS011;16267;48.194;11.546;2022-12-07T06:24:41;20.45;;;13.63;;
29238;SDS011;16267;48.194;11.546;2022-12-07T06:27:07;22.90;;;13.35;;
29238;SDS011;16267;48.194;11.546;2022-12-07T06:29:33;20.45;;;13.60;;
29238;SDS011;16267;48.194;11.546;2022-12-07T06:31:59;22.92;;;13.57;;
29238;SDS011;16267;48.194;11.546;2022-12-07T06:34:26;19.88;;;13.07;;
29238;SDS011;16267;48.194;11.546;2022-12-07T06:36:52;19.75;;;12.60;;
29238;SDS011;16267;48.194;11.546;2022-12-07T06:39:26;22.02;;;14.07;;
29238;SDS011;16267;48.194;11.546;2022-12-07T06:41:53;23.27;;;13.65;;
29238;SDS011;16267;48.194;11.546;2022-12-07T06:44:20;18.23;;;12.52;;
29238;SDS011;16267;48.194;11.546;2022-12-07T06:46:49;19.73;;;13.10;;
29238;SDS011;16267;48.194;11.546;2022-12-07T06:49:16;20.42;;;13.25;;
29238;SDS011;16267;48.194;11.546;2022-12-07T06:51:42;21.95;;;14.38;;
29238;SDS011;16267;48.194;11.546;2022-12-07T06:54:09;23.33;;;15.10;;
29238;SDS011;16267;48.194;11.546;2022-12-07T06:56:36;20.30;;;13.50;;
29238;SDS011;16267;48.194;11.546;2022-12-07T06:59:02;18.27;;;13.25;;
29238;SDS011;16267;48.194;11.546;2022-12-07T07:01:30;19.52;;;13.50;;
29238;SDS011;16267;48.194;11.546;2022-12-07T07:03:56;22.30;;;14.77;;
29238;SDS011;16267;48.194;11.546;2022-12-07T07:06:21;19.83;;;13.27;;
29238;SDS011;16267;48.194;11.546;2022-12-07T07:08:47;21.52;;;14.25;;
29238;SDS011;16267;48.194;11.546;2022-12-07T07:11:13;20.77;;;13.52;;
29238;SDS011;16267;48.194;11.546;2022-12-07T07:13:39;22.23;;;14.25;;
29238;SDS011;16267;48.194;11.546;2022-12-07T07:16:05;19.13;;;13.63;;
29238;SDS011;16267;48.194;11.546;2022-12-07T07:18:32;21.67;;;13.95;;
29238;SDS011;16267;48.194;11.546;2022-12-07T07:20:58;19.35;;;13.60;;
29238;SDS011;16267;48.194;11.546;2022-12-07T07:23:24;22.58;;;14.30;;
29238;SDS011;16267;48.194;11.546;2022-12-07T07:25:50;20.08;;;13.70;;
29238;SDS011;16267;48.194;11.546;2022-12-07T07:28:16;19.67;;;13.98;;
29238;SDS011;16267;48.194;11.546;2022-12-07T07:30:42;20.75;;;13.77;;
29238;SDS011;16267;48.194;11.546;2022-12-07T07:33:09;25.08;;;14.93;;
29238;SDS011;16267;48.194;11.546;2022-12-07T07:35:36;19.35;;;13.80;;
29238;SDS011;16267;48.194;11.546;2022-12-07T07:38:02;23.77;;;14.73;;
29238;SDS011;16267;48.194;11.546;2022-12-07T07:40:28;23.60;;;14.98;;
29238;SDS011;16267;48.194;11.546;2022-12-07T07:42:55;20.45;;;14.25;;
29238;SDS011;16267;48.194;11.546;2022-12-07T07:45:21;20.77;;;14.23;;
29238;SDS011;16267;48.194;11.546;2022-12-07T07:47:49;20.50;;;14.10;;
29238;SDS011;16267;48.194;11.546;2022-12-07T07:50:15;24.85;;;15.48;;
29238;SDS011;16267;48.194;11.546;2022-12-07T07:52:42;20.67;;;14.25;;
29238;SDS011;16267;48.194;11.546;2022-12-07T07:55:08;24.42;;;14.95;;
29238;SDS011;16267;48.194;11.546;2022-12-07T07:57:35;21.83;;;15.43;;
29238;SDS011;16267;48.194;11.546;2022-12-07T08:00:12;22.08;;;15.35;;
29238;SDS011;16267;48.194;11.546;2022-12-07T08:02:39;21.05;;;14.35;;
29238;SDS011;16267;48.194;11.546;2022-12-07T08:05:06;20.77;;;14.48;;
29238;SDS011;16267;48.194;11.546;2022-12-07T08:07:32;24.88;;;16.30;;
29238;SDS011;16267;48.194;11.546;2022-12-07T08:09:58;23.63;;;16.55;;
29238;SDS011;16267;48.194;11.546;2022-12-07T08:12:23;20.52;;;14.82;;
29238;SDS011;16267;48.194;11.546;2022-12-07T08:14:49;23.35;;;15.82;;
29238;SDS011;16267;48.194;11.546;2022-12-07T08:17:15;23.02;;;15.80;;
29238;SDS011;16267;48.194;11.546;2022-12-07T08:19:40;22.17;;;15.98;;
29238;SDS011;16267;48.194;11.546;2022-12-07T08:22:06;25.08;;;16.40;;
29238;SDS011;16267;48.194;11.546;2022-12-07T08:24:33;23.98;;;16.10;;
29238;SDS011;16267;48.194;11.546;2022-12-07T08:26:59;23.52;;;16.13;;
29238;SDS011;16267;48.194;11.546;2022-12-07T08:29:25;24.30;;;16.60;;
29238;SDS011;16267;48.194;11.546;2022-12-07T08:31:51;31.50;;;17.45;;
29238;SDS011;16267;48.194;11.546;2022-12-07T08:34:17;25.25;;;16.85;;
29238;SDS011;16267;48.194;11.546;2022-12-07T08:36:42;25.50;;;16.13;;
29238;SDS011;16267;48.194;11.546;2022-12-07T08:39:09;22.25;;;15.15;;
29238;SDS011;16267;48.194;11.546;2022-12-07T08:41:35;23.45;;;15.98;;
29238;SDS011;16267;48.194;11.546;2022-12-07T08:44:02;25.58;;;16.60;;
29238;SDS011;16267;48.194;11.546;2022-12-07T08:46:30;25.17;;;15.82;;
29238;SDS011;16267;48.194;11.546;2022-12-07T08:49:36;26.30;;;15.68;;
29238;SDS011;16267;48.194;11.546;2022-12-07T08:52:09;27.05;;;16.48;;
29238;SDS011;16267;48.194;11.546;2022-12-07T08:54:36;23.30;;;15.77;;
29238;SDS011;16267;48.194;11.546;2022-12-07T08:57:05;21.80;;;15.15;;
29238;SDS011;16267;48.194;11.546;2022-12-07T08:59:32;26.83;;;16.55;;
29238;SDS011;16267;48.194;11.546;2022-12-07T09:01:59;24.27;;;16.40;;
29238;SDS011;16267;48.194;11.546;2022-12-07T09:04:25;23.02;;;14.85;;
29238;SDS011;16267;48.194;11.546;2022-12-07T09:06:52;23.55;;;16.17;;
29238;SDS011;16267;48.194;11.546;2022-12-07T09:09:20;23.65;;;16.27;;
29238;SDS011;16267;48.194;11.546;2022-12-07T09:11:45;22.45;;;14.85;;
29238;SDS011;16267;48.194;11.546;2022-12-07T09:14:12;22.38;;;15.02;;
29238;SDS011;16267;48.194;11.546;2022-12-07T09:16:38;22.88;;;14.40;;
29238;SDS011;16267;48.194;11.546;2022-12-07T09:19:04;22.02;;;14.82;;
29238;SDS011;16267;48.194;11.546;2022-12-07T09:21:30;23.75;;;15.23;;
29238;SDS011;16267;48.194;11.546;2022-12-07T09:23:56;21.95;;;14.88;;
29238;SDS011;16267;48.194;11.546;2022-12-07T09:26:22;19.90;;;13.90;;
29238;SDS011;16267;48.194;11.546;2022-12-07T09:28:48;23.95;;;14.63;;
29238;SDS011;16267;48.194;11.546;2022-12-07T09:31:13;20.50;;;13.82;;
29238;SDS011;16267;48.194;11.546;2022-12-07T09:33:39;22.83;;;14.57;;
29238;SDS011;16267;48.194;11.546;2022-12-07T09:36:06;21.52;;;15.10;;
29238;SDS011;16267;48.194;11.546;2022-12-07T09:38:32;22.52;;;14.75;;
29238;SDS011;16267;48.194;11.546;2022-12-07T09:40:58;23.50;;;14.77;;
29238;SDS011;16267;48.194;11.546;2022-12-07T09:43:33;23.90;;;13.48;;
29238;SDS011;16267;48.194;11.546;2022-12-07T09:46:01;19.83;;;12.60;;
29238;SDS011;16267;48.194;11.546;2022-12-07T09:51:02;19.95;;;13.98;;
29238;SDS011;16267;48.194;11.546;2022-12-07T09:53:42;23.30;;;14.85;;
29238;SDS011;16267;48.194;11.546;2022-12-07T09:56:11;20.65;;;13.48;;
29238;SDS011;16267;48.194;11.546;2022-12-07T09:58:40;20.80;;;12.63;;
29238;SDS011;16267;48.194;11.546;2022-12-07T10:03:32;19.95;;;13.10;;
29238;SDS011;16267;48.194;11.546;2022-12-07T10:06:10;20.63;;;13.95;;
29238;SDS011;16267;48.194;11.546;2022-12-07T10:08:37;18.88;;;12.30;;
29238;SDS011;16267;48.194;11.546;2022-12-07T10:11:03;20.80;;;13.75;;
29238;SDS011;16267;48.194;11.546;2022-12-07T10:16:25;21.00;;;12.38;;
29238;SDS011;16267;48.194;11.546;2022-12-07T10:19:17;19.80;;;12.77;;
29238;SDS011;16267;48.194;11.546;2022-12-07T10:24:39;19.65;;;12.63;;
29238;SDS011;16267;48.194;11.546;2022-12-07T10:27:19;19.55;;;12.38;;
29238;SDS011;16267;48.194;11.546;2022-12-07T10:29:51;21.50;;;13.25;;
29238;SDS011;16267;48.194;11.546;2022-12-07T10:34:44;18.77;;;12.60;;
29238;SDS011;16267;48.194;11.546;2022-12-07T10:39:51;19.08;;;11.05;;
29238;SDS011;16267;48.194;11.546;2022-12-07T10:42:23;17.80;;;11.95;;
29238;SDS011;16267;48.194;11.546;2022-12-07T10:45:13;17.60;;;11.45;;
29238;SDS011;16267;48.194;11.546;2022-12-07T11:04:33;15.35;;;9.93;;
29238;SDS011;16267;48.194;11.546;2022-12-07T11:10:40;15.68;;;10.30;;
29238;SDS011;16267;48.194;11.546;2022-12-07T11:13:29;18.17;;;10.85;;
29238;SDS011;16267;48.194;11.546;2022-12-07T11:24:15;13.60;;;9.25;;
29238;SDS011;16267;48.194;11.546;2022-12-07T11:29:21;14.65;;;8.77;;
29238;SDS011;16267;48.194;11.546;2022-12-07T11:38:23;17.33;;;10.18;;
29238;SDS011;16267;48.194;11.546;2022-12-07T11:41:08;15.60;;;9.70;;
29238;SDS011;16267;48.194;11.546;2022-12-07T11:46:51;13.95;;;8.95;;
29238;SDS011;16267;48.194;11.546;2022-12-07T11:52:22;13.38;;;7.85;;
29238;SDS011;16267;48.194;11.546;2022-12-07T11:55:00;14.38;;;8.55;;
29238;SDS011;16267;48.194;11.546;2022-12-07T11:57:33;13.45;;;8.00;;
29238;SDS011;16267;48.194;11.546;2022-12-07T12:00:11;14.43;;;7.88;;
29238;SDS011;16267;48.194;11.546;2022-12-07T12:05:25;13.70;;;7.80;;
29238;SDS011;16267;48.194;11.546;2022-12-07T12:14:01;12.05;;;7.13;;
29238;SDS011;16267;48.194;11.546;2022-12-07T12:23:09;14.25;;;7.38;;
29238;SDS011;16267;48.194;11.546;2022-12-07T12:25:53;10.93;;;7.53;;
29238;SDS011;16267;48.194;11.546;2022-12-07T12:33:56;18.80;;;8.15;;
29238;SDS011;16267;48.194;11.546;2022-12-07T12:51:58;10.98;;;7.50;;
29238;SDS011;16267;48.194;11.546;2022-12-07T12:54:57;13.18;;;6.60;;
29238;SDS011;16267;48.194;11.546;2022-12-07T12:57:46;10.68;;;6.32;;
29238;SDS011;16267;48.194;11.546;2022-12-07T13:00:32;9.73;;;5.82;;
29238;SDS011;16267;48.194;11.546;2022-12-07T13:02:59;8.70;;;6.07;;
29238;SDS011;16267;48.194;11.546;2022-12-07T13:05:25;11.13;;;6.82;;
29238;SDS011;16267;48.194;11.546;2022-12-07T13:10:46;9.30;;;6.35;;
29238;SDS011;16267;48.194;11.546;2022-12-07T13:20:53;11.68;;;7.60;;
29238;SDS011;16267;48.194;11.546;2022-12-07T13:23:33;11.52;;;7.45;;
29238;SDS011;16267;48.194;11.546;2022-12-07T13:26:09;7.70;;;5.50;;
29238;SDS011;16267;48.194;11.546;2022-12-07T13:29:02;10.23;;;7.65;;
29238;SDS011;16267;48.194;11.546;2022-12-07T13:31:45;10.55;;;7.20;;
29238;SDS011;16267;48.194;11.546;2022-12-07T13:39:46;11.70;;;8.05;;
29238;SDS011;16267;48.194;11.546;2022-12-07T13:42:31;13.52;;;8.02;;
29238;SDS011;16267;48.194;11.546;2022-12-07T13:44:59;14.88;;;8.55;;
29238;SDS011;16267;48.194;11.546;2022-12-07T13:50:56;12.10;;;7.43;;
29238;SDS011;16267;48.194;11.546;2022-12-07T13:53:23;10.90;;;7.35;;
29238;SDS011;16267;48.194;11.546;2022-12-07T13:55:52;12.73;;;7.57;;
29238;SDS011;16267;48.194;11.546;2022-12-07T13:58:19;10.05;;;7.13;;
29238;SDS011;16267;48.194;11.546;2022-12-07T14:00:45;11.13;;;7.45;;
29238;SDS011;16267;48.194;11.546;2022-12-07T14:05:36;17.20;;;7.82;;
29238;SDS011;16267;48.194;11.546;2022-12-07T14:08:05;11.90;;;8.10;;
29238;SDS011;16267;48.194;11.546;2022-12-07T14:10:55;13.30;;;8.63;;
29238;SDS011;16267;48.194;11.546;2022-12-07T14:18:44;14.48;;;8.77;;
29238;SDS011;16267;48.194;11.546;2022-12-07T14:23:36;19.33;;;8.55;;
29238;SDS011;16267;48.194;11.546;2022-12-07T14:26:05;16.15;;;8.93;;
29238;SDS011;16267;48.194;11.546;2022-12-07T14:28:37;12.88;;;8.30;;
29238;SDS011;16267;48.194;11.546;2022-12-07T14:31:07;16.17;;;7.30;;
29238;SDS011;16267;48.194;11.546;2022-12-07T14:33:41;12.07;;;7.45;;
29238;SDS011;16267;48.194;11.546;2022-12-07T14:36:10;12.10;;;7.70;;
29238;SDS011;16267;48.194;11.546;2022-12-07T14:38:38;12.45;;;7.10;;
29238;SDS011;16267;48.194;11.546;2022-12-07T14:41:06;20.10;;;7.68;;
29238;SDS011;16267;48.194;11.546;2022-12-07T14:43:58;11.77;;;7.88;;
29238;SDS011;16267;48.194;11.546;2022-12-07T14:46:25;12.73;;;8.23;;
29238;SDS011;16267;48.194;11.546;2022-12-07T14:48:51;12.55;;;8.10;;
29238;SDS011;16267;48.194;11.546;2022-12-07T14:51:16;10.88;;;7.13;;
29238;SDS011;16267;48.194;11.546;2022-12-07T14:53:43;17.48;;;9.20;;
29238;SDS011;16267;48.194;11.546;2022-12-07T14:56:13;13.82;;;8.88;;
29238;SDS011;16267;48.194;11.546;2022-12-07T14:58:40;15.52;;;9.50;;
29238;SDS011;16267;48.194;11.546;2022-12-07T15:01:05;14.77;;;9.45;;
29238;SDS011;16267;48.194;11.546;2022-12-07T15:03:31;15.32;;;10.05;;
29238;SDS011;16267;48.194;11.546;2022-12-07T15:05:59;21.65;;;10.30;;
29238;SDS011;16267;48.194;11.546;2022-12-07T15:08:26;19.38;;;12.48;;
29238;SDS011;16267;48.194;11.546;2022-12-07T15:10:51;17.33;;;11.00;;
29238;SDS011;16267;48.194;11.546;2022-12-07T15:13:17;22.23;;;10.50;;
29238;SDS011;16267;48.194;11.546;2022-12-07T15:16:02;16.13;;;10.18;;
29238;SDS011;16267;48.194;11.546;2022-12-07T15:18:28;17.30;;;10.70;;
29238;SDS011;16267;48.194;11.546;2022-12-07T15:20:54;17.98;;;11.48;;
29238;SDS011;16267;48.194;11.546;2022-12-07T15:23:20;16.98;;;10.35;;
29238;SDS011;16267;48.194;11.546;2022-12-07T15:25:47;17.83;;;11.25;;
29238;SDS011;16267;48.194;11.546;2022-12-07T15:28:14;16.98;;;10.60;;
29238;SDS011;16267;48.194;11.546;2022-12-07T15:30:41;25.38;;;10.93;;
29238;SDS011;16267;48.194;11.546;2022-12-07T15:33:08;19.02;;;11.13;;
29238;SDS011;16267;48.194;11.546;2022-12-07T15:35:41;16.83;;;10.27;;
29238;SDS011;16267;48.194;11.546;2022-12-07T15:38:08;18.58;;;10.63;;
29238;SDS011;16267;48.194;11.546;2022-12-07T15:40:35;16.05;;;10.35;;
29238;SDS011;16267;48.194;11.546;2022-12-07T15:43:01;17.38;;;9.95;;
29238;SDS011;16267;48.194;11.546;2022-12-07T15:45:28;23.20;;;10.98;;
29238;SDS011;16267;48.194;11.546;2022-12-07T15:47:54;16.48;;;10.48;;
29238;SDS011;16267;48.194;11.546;2022-12-07T15:50:22;17.77;;;10.07;;
29238;SDS011;16267;48.194;11.546;2022-12-07T15:52:48;18.45;;;10.20;;
29238;SDS011;16267;48.194;11.546;2022-12-07T15:55:14;15.40;;;10.10;;
29238;SDS011;16267;48.194;11.546;2022-12-07T15:57:40;15.35;;;10.15;;
29238;SDS011;16267;48.194;11.546;2022-12-07T16:00:07;18.33;;;10.40;;
29238;SDS011;16267;48.194;11.546;2022-12-07T16:02:36;21.40;;;10.20;;
29238;SDS011;16267;48.194;11.546;2022-12-07T16:05:02;16.83;;;10.10;;
29238;SDS011;16267;48.194;11.546;2022-12-07T16:07:28;15.02;;;10.05;;
29238;SDS011;16267;48.194;11.546;2022-12-07T16:09:54;18.05;;;10.27;;
29238;SDS011;16267;48.194;11.546;2022-12-07T16:12:20;19.92;;;10.95;;
29238;SDS011;16267;48.194;11.546;2022-12-07T16:14:46;20.15;;;11.88;;
29238;SDS011;16267;48.194;11.546;2022-12-07T16:17:12;16.73;;;10.80;;
29238;SDS011;16267;48.194;11.546;2022-12-07T16:19:38;20.13;;;11.02;;
29238;SDS011;16267;48.194;11.546;2022-12-07T16:22:04;17.38;;;11.25;;
29238;SDS011;16267;48.194;11.546;2022-12-07T16:24:30;20.38;;;11.45;;
29238;SDS011;16267;48.194;11.546;2022-12-07T16:26:57;18.08;;;11.02;;
29238;SDS011;16267;48.194;11.546;2022-12-07T16:29:23;19.15;;;11.40;;
29238;SDS011;16267;48.194;11.546;2022-12-07T16:31:49;17.35;;;11.15;;
29238;SDS011;16267;48.194;11.546;2022-12-07T16:34:16;20.45;;;10.80;;
29238;SDS011;16267;48.194;11.546;2022-12-07T16:36:42;21.67;;;11.82;;
29238;SDS011;16267;48.194;11.546;2022-12-07T16:39:08;19.50;;;12.38;;
29238;SDS011;16267;48.194;11.546;2022-12-07T16:41:35;18.20;;;12.00;;
29238;SDS011;16267;48.194;11.546;2022-12-07T16:44:02;26.23;;;11.93;;
29238;SDS011;16267;48.194;11.546;2022-12-07T16:46:34;18.95;;;11.55;;
29238;SDS011;16267;48.194;11.546;2022-12-07T16:49:01;17.60;;;11.13;;
29238;SDS011;16267;48.194;11.546;2022-12-07T16:51:27;20.38;;;11.43;;
29238;SDS011;16267;48.194;11.546;2022-12-07T16:53:53;20.25;;;11.13;;
29238;SDS011;16267;48.194;11.546;2022-12-07T16:56:19;21.23;;;11.55;;
29238;SDS011;16267;48.194;11.546;2022-12-07T16:58:45;18.23;;;11.45;;
29238;SDS011;16267;48.194;11.546;2022-12-07T17:01:17;19.48;;;11.63;;
29238;SDS011;16267;48.194;11.546;2022-12-07T17:03:47;23.70;;;11.88;;
29238;SDS011;16267;48.194;11.546;2022-12-07T17:06:14;20.02;;;11.30;;
29238;SDS011;16267;48.194;11.546;2022-12-07T17:08:43;16.92;;;11.23;;
29238;SDS011;16267;48.194;11.546;2022-12-07T17:11:10;22.52;;;12.55;;
29238;SDS011;16267;48.194;11.546;2022-12-07T17:13:50;18.70;;;11.15;;
29238;SDS011;16267;48.194;11.546;2022-12-07T17:16:35;20.25;;;11.25;;
29238;SDS011;16267;48.194;11.546;2022-12-07T17:19:05;20.17;;;11.60;;
29238;SDS011;16267;48.194;11.546;2022-12-07T17:21:36;19.00;;;12.85;;
29238;SDS011;16267;48.194;11.546;2022-12-07T17:24:03;23.40;;;15.13;;
29238;SDS011;16267;48.194;11.546;2022-12-07T17:26:32;21.20;;;14.10;;
29238;SDS011;16267;48.194;11.546;2022-12-07T17:28:59;32.50;;;18.92;;
29238;SDS011;16267;48.194;11.546;2022-12-07T17:31:25;31.00;;;16.27;;
29238;SDS011;16267;48.194;11.546;2022-12-07T17:33:51;29.88;;;18.45;;
29238;SDS011;16267;48.194;11.546;2022-12-07T17:36:19;27.15;;;17.30;;
29238;SDS011;16267;48.194;11.546;2022-12-07T17:38:51;25.58;;;14.98;;
29238;SDS011;16267;48.194;11.546;2022-12-07T17:41:18;28.70;;;15.20;;
29238;SDS011;16267;48.194;11.546;2022-12-07T17:44:06;27.88;;;14.32;;
29238;SDS011;16267;48.194;11.546;2022-12-07T17:46:36;25.50;;;13.95;;
29238;SDS011;16267;48.194;11.546;2022-12-07T17:49:04;26.42;;;13.25;;
29238;SDS011;16267;48.194;11.546;2022-12-07T17:51:30;24.20;;;13.25;;
29238;SDS011;16267;48.194;11.546;2022-12-07T17:54:15;29.92;;;13.95;;
29238;SDS011;16267;48.194;11.546;2022-12-07T17:56:43;26.63;;;14.40;;
29238;SDS011;16267;48.194;11.546;2022-12-07T17:59:09;26.10;;;13.43;;
29238;SDS011;16267;48.194;11.546;2022-12-07T18:01:35;23.20;;;12.20;;
29238;SDS011;16267;48.194;11.546;2022-12-07T18:04:02;25.77;;;12.57;;
29238;SDS011;16267;48.194;11.546;2022-12-07T18:06:28;21.33;;;11.73;;
29238;SDS011;16267;48.194;11.546;2022-12-07T18:08:55;22.45;;;12.20;;
29238;SDS011;16267;48.194;11.546;2022-12-07T18:11:21;22.73;;;12.18;;
29238;SDS011;16267;48.194;11.546;2022-12-07T18:13:47;19.27;;;12.07;;
29238;SDS011;16267;48.194;11.546;2022-12-07T18:16:17;21.80;;;12.48;;
29238;SDS011;16267;48.194;11.546;2022-12-07T18:18:47;18.90;;;11.80;;
29238;SDS011;16267;48.194;11.546;2022-12-07T18:21:14;31.42;;;12.77;;
29238;SDS011;16267;48.194;11.546;2022-12-07T18:23:44;21.73;;;13.20;;
29238;SDS011;16267;48.194;11.546;2022-12-07T18:26:15;23.30;;;11.80;;
29238;SDS011;16267;48.194;11.546;2022-12-07T18:28:43;23.67;;;12.27;;
29238;SDS011;16267;48.194;11.546;2022-12-07T18:31:09;22.60;;;13.00;;
29238;SDS011;16267;48.194;11.546;2022-12-07T18:33:39;24.20;;;13.00;;
29238;SDS011;16267;48.194;11.546;2022-12-07T18:36:07;20.50;;;12.65;;
29238;SDS011;16267;48.194;11.546;2022-12-07T18:38:33;19.83;;;12.23;;
29238;SDS011;16267;48.194;11.546;2022-12-07T18:41:00;19.08;;;11.82;;
29238;SDS011;16267;48.194;11.546;2022-12-07T18:43:27;22.08;;;12.82;;
29238;SDS011;16267;48.194;11.546;2022-12-07T18:45:53;21.13;;;12.75;;
29238;SDS011;16267;48.194;11.546;2022-12-07T18:48:19;24.40;;;12.65;;
29238;SDS011;16267;48.194;11.546;2022-12-07T18:50:47;20.83;;;12.00;;
29238;SDS011;16267;48.194;11.546;2022-12-07T18:53:26;27.45;;;12.40;;
29238;SDS011;16267;48.194;11.546;2022-12-07T18:55:59;22.27;;;12.10;;
29238;SDS011;16267;48.194;11.546;2022-12-07T18:58:59;23.42;;;13.35;;
29238;SDS011;16267;48.194;11.546;2022-12-07T19:01:46;24.80;;;13.10;;
29238;SDS011;16267;48.194;11.546;2022-12-07T19:04:15;24.83;;;13.00;;
29238;SDS011;16267;48.194;11.546;2022-12-07T19:06:42;25.92;;;14.07;;
29238;SDS011;16267;48.194;11.546;2022-12-07T19:09:11;26.58;;;13.88;;
29238;SDS011;16267;48.194;11.546;2022-12-07T19:11:37;24.95;;;15.20;;
29238;SDS011;16267;48.194;11.546;2022-12-07T19:14:17;27.98;;;14.70;;
29238;SDS011;16267;48.194;11.546;2022-12-07T19:16:52;26.20;;;14.60;;
29238;SDS011;16267;48.194;11.546;2022-12-07T19:19:22;22.02;;;13.95;;
29238;SDS011;16267;48.194;11.546;2022-12-07T19:21:53;24.95;;;15.00;;
29238;SDS011;16267;48.194;11.546;2022-12-07T19:24:19;25.08;;;15.15;;
29238;SDS011;16267;48.194;11.546;2022-12-07T19:26:44;25.80;;;15.23;;
29238;SDS011;16267;48.194;11.546;2022-12-07T19:29:10;28.05;;;14.23;;
29238;SDS011;16267;48.194;11.546;2022-12-07T19:31:36;23.70;;;14.32;;
29238;SDS011;16267;48.194;11.546;2022-12-07T19:34:06;26.75;;;14.80;;
29238;SDS011;16267;48.194;11.546;2022-12-07T19:36:34;24.33;;;14.77;;
29238;SDS011;16267;48.194;11.546;2022-12-07T19:39:00;26.88;;;15.85;;
29238;SDS011;16267;48.194;11.546;2022-12-07T19:41:26;27.58;;;17.23;;